sensor_id;sensor_type;location;lat;lon;timestamp;pressure;altitude;pressure_sealevel;temperature;humidity
34081;BME280;20358;50.272;19.026;2022-08-18T00:00:52;97925.13;;;22.07;73.53
34081;BME280;20358;50.272;19.026;2022-08-18T00:03:59;97931.44;;;22.06;73.54
34081;BME280;20358;50.272;19.026;2022-08-18T00:07:27;97924.78;;;22.02;73.46
34081;BME280;20358;50.272;19.026;2022-08-18T00:10:39;97926.75;;;22.00;73.56
34081;BME280;20358;50.272;19.026;2022-08-18T00:13:45;97943.25;;;21.95;73.67
34081;BME280;20358;50.272;19.026;2022-08-18T00:16:53;97942.75;;;21.92;73.92
34081;BME280;20358;50.272;19.026;2022-08-18T00:19:59;97940.41;;;21.89;74.15
34081;BME280;20358;50.272;19.026;2022-08-18T00:23:09;97936.25;;;21.86;73.93
34081;BME280;20358;50.272;19.026;2022-08-18T00:26:18;97943.56;;;21.84;74.05
34081;BME280;20358;50.272;19.026;2022-08-18T00:29:25;97943.06;;;21.81;74.31
34081;BME280;20358;50.272;19.026;2022-08-18T00:32:33;97937.38;;;21.76;74.44
34081;BME280;20358;50.272;19.026;2022-08-18T00:35:40;97935.03;;;21.73;74.65
34081;BME280;20358;50.272;19.026;2022-08-18T00:38:47;97930.88;;;21.70;74.85
34081;BME280;20358;50.272;19.026;2022-08-18T00:41:56;97928.34;;;21.69;74.77
34081;BME280;20358;50.272;19.026;2022-08-18T00:45:05;97925.34;;;21.64;75.11
34081;BME280;20358;50.272;19.026;2022-08-18T00:48:13;97921.53;;;21.58;75.30
34081;BME280;20358;50.272;19.026;2022-08-18T00:51:23;97922.34;;;21.59;75.24
34081;BME280;20358;50.272;19.026;2022-08-18T00:54:32;97922.66;;;21.56;75.46
34081;BME280;20358;50.272;19.026;2022-08-18T00:57:46;97924.66;;;21.54;75.53
34081;BME280;20358;50.272;19.026;2022-08-18T01:00:54;97924.31;;;21.49;75.90
34081;BME280;20358;50.272;19.026;2022-08-18T01:04:05;97928.13;;;21.46;75.84
34081;BME280;20358;50.272;19.026;2022-08-18T01:07:17;97926.63;;;21.43;76.02
34081;BME280;20358;50.272;19.026;2022-08-18T01:10:24;97922.78;;;21.38;76.12
34081;BME280;20358;50.272;19.026;2022-08-18T01:13:35;97924.97;;;21.34;76.34
34081;BME280;20358;50.272;19.026;2022-08-18T01:16:43;97925.59;;;21.28;76.52
34081;BME280;20358;50.272;19.026;2022-08-18T01:20:07;97925.06;;;21.25;76.74
34081;BME280;20358;50.272;19.026;2022-08-18T01:23:37;97933.22;;;21.23;76.91
34081;BME280;20358;50.272;19.026;2022-08-18T01:26:46;97929.16;;;21.19;77.15
34081;BME280;20358;50.272;19.026;2022-08-18T01:29:52;97933.00;;;21.17;77.32
34081;BME280;20358;50.272;19.026;2022-08-18T01:33:00;97920.81;;;21.14;77.53
34081;BME280;20358;50.272;19.026;2022-08-18T01:36:13;97917.81;;;21.09;77.52
34081;BME280;20358;50.272;19.026;2022-08-18T01:39:24;97909.16;;;21.07;77.71
34081;BME280;20358;50.272;19.026;2022-08-18T01:42:51;97914.13;;;21.02;77.98
34081;BME280;20358;50.272;19.026;2022-08-18T01:45:58;97904.63;;;21.00;78.29
34081;BME280;20358;50.272;19.026;2022-08-18T01:49:07;97913.09;;;20.95;78.60
34081;BME280;20358;50.272;19.026;2022-08-18T01:52:17;97906.41;;;20.91;78.69
34081;BME280;20358;50.272;19.026;2022-08-18T01:55:27;97908.72;;;20.86;78.99
34081;BME280;20358;50.272;19.026;2022-08-18T01:58:35;97898.38;;;20.83;79.10
34081;BME280;20358;50.272;19.026;2022-08-18T02:01:43;97882.75;;;20.80;79.29
34081;BME280;20358;50.272;19.026;2022-08-18T02:05:03;97875.72;;;20.79;78.99
34081;BME280;20358;50.272;19.026;2022-08-18T02:08:10;97880.22;;;20.78;79.23
34081;BME280;20358;50.272;19.026;2022-08-18T02:11:20;97879.38;;;20.78;79.27
34081;BME280;20358;50.272;19.026;2022-08-18T02:14:27;97887.19;;;20.71;79.17
34081;BME280;20358;50.272;19.026;2022-08-18T02:17:36;97885.97;;;20.66;79.45
34081;BME280;20358;50.272;19.026;2022-08-18T02:20:43;97888.97;;;20.63;79.50
34081;BME280;20358;50.272;19.026;2022-08-18T02:23:50;97889.13;;;20.61;79.60
34081;BME280;20358;50.272;19.026;2022-08-18T02:27:00;97889.97;;;20.62;79.57
34081;BME280;20358;50.272;19.026;2022-08-18T02:30:10;97886.28;;;20.63;79.65
34081;BME280;20358;50.272;19.026;2022-08-18T02:33:17;97886.28;;;20.63;79.48
34081;BME280;20358;50.272;19.026;2022-08-18T02:36:23;97898.94;;;20.61;79.41
34081;BME280;20358;50.272;19.026;2022-08-18T02:39:32;97906.06;;;20.60;79.37
34081;BME280;20358;50.272;19.026;2022-08-18T02:42:42;97894.75;;;20.58;79.37
34081;BME280;20358;50.272;19.026;2022-08-18T02:45:49;97887.09;;;20.55;79.37
34081;BME280;20358;50.272;19.026;2022-08-18T02:48:56;97895.25;;;20.54;79.43
34081;BME280;20358;50.272;19.026;2022-08-18T02:52:05;97899.91;;;20.52;79.45
34081;BME280;20358;50.272;19.026;2022-08-18T02:55:12;97897.38;;;20.50;79.30
34081;BME280;20358;50.272;19.026;2022-08-18T02:58:22;97914.50;;;20.48;79.28
34081;BME280;20358;50.272;19.026;2022-08-18T03:01:36;97909.44;;;20.45;79.37
34081;BME280;20358;50.272;19.026;2022-08-18T03:04:44;97915.91;;;20.42;79.54
34081;BME280;20358;50.272;19.026;2022-08-18T03:07:50;97927.69;;;20.40;79.63
34081;BME280;20358;50.272;19.026;2022-08-18T03:10:58;97929.69;;;20.38;79.67
34081;BME280;20358;50.272;19.026;2022-08-18T03:14:08;97930.00;;;20.35;79.55
34081;BME280;20358;50.272;19.026;2022-08-18T03:17:15;97926.66;;;20.33;79.80
34081;BME280;20358;50.272;19.026;2022-08-18T03:20:22;97923.31;;;20.31;79.66
34081;BME280;20358;50.272;19.026;2022-08-18T03:23:33;97923.63;;;20.28;79.87
34081;BME280;20358;50.272;19.026;2022-08-18T03:26:43;97933.44;;;20.27;80.11
34081;BME280;20358;50.272;19.026;2022-08-18T03:29:54;97934.56;;;20.24;80.14
34081;BME280;20358;50.272;19.026;2022-08-18T03:33:00;97938.22;;;20.23;80.06
34081;BME280;20358;50.272;19.026;2022-08-18T03:36:12;97940.19;;;20.21;80.43
34081;BME280;20358;50.272;19.026;2022-08-18T03:39:19;97928.72;;;20.21;80.34
34081;BME280;20358;50.272;19.026;2022-08-18T03:42:28;97930.72;;;20.19;80.66
34081;BME280;20358;50.272;19.026;2022-08-18T03:45:38;97929.06;;;20.18;80.59
34081;BME280;20358;50.272;19.026;2022-08-18T03:48:45;97933.53;;;20.17;80.91
34081;BME280;20358;50.272;19.026;2022-08-18T03:51:51;97931.00;;;20.16;80.78
34081;BME280;20358;50.272;19.026;2022-08-18T03:54:59;97936.50;;;20.14;80.87
34081;BME280;20358;50.272;19.026;2022-08-18T03:58:05;97939.16;;;20.14;81.31
34081;BME280;20358;50.272;19.026;2022-08-18T04:01:24;97939.81;;;20.16;81.21
34081;BME280;20358;50.272;19.026;2022-08-18T04:04:31;97939.69;;;20.18;81.27
34081;BME280;20358;50.272;19.026;2022-08-18T04:07:39;97932.22;;;20.21;81.43
34081;BME280;20358;50.272;19.026;2022-08-18T04:10:46;97925.94;;;20.22;81.34
34081;BME280;20358;50.272;19.026;2022-08-18T04:13:53;97936.09;;;20.27;81.41
34081;BME280;20358;50.272;19.026;2022-08-18T04:17:07;97946.25;;;20.32;81.35
34081;BME280;20358;50.272;19.026;2022-08-18T04:20:15;97940.63;;;20.35;81.42
34081;BME280;20358;50.272;19.026;2022-08-18T04:23:21;97935.00;;;20.38;81.26
34081;BME280;20358;50.272;19.026;2022-08-18T04:26:28;97936.34;;;20.42;81.38
34081;BME280;20358;50.272;19.026;2022-08-18T04:29:34;97944.75;;;20.47;81.36
34081;BME280;20358;50.272;19.026;2022-08-18T04:32:44;97941.63;;;20.51;81.34
34081;BME280;20358;50.272;19.026;2022-08-18T04:35:51;97938.19;;;20.59;81.33
34081;BME280;20358;50.272;19.026;2022-08-18T04:38:58;97946.53;;;20.64;80.86
34081;BME280;20358;50.272;19.026;2022-08-18T04:42:05;97942.56;;;20.68;80.99
34081;BME280;20358;50.272;19.026;2022-08-18T04:45:12;97940.25;;;20.73;81.09
34081;BME280;20358;50.272;19.026;2022-08-18T04:48:21;97941.31;;;20.80;81.25
34081;BME280;20358;50.272;19.026;2022-08-18T04:51:29;97942.66;;;20.84;81.04
34081;BME280;20358;50.272;19.026;2022-08-18T04:54:55;97935.69;;;20.91;80.92
34081;BME280;20358;50.272;19.026;2022-08-18T04:57:59;97939.06;;;21.01;81.05
34081;BME280;20358;50.272;19.026;2022-08-18T05:01:05;97939.81;;;21.11;80.88
34081;BME280;20358;50.272;19.026;2022-08-18T05:04:16;97944.88;;;21.22;80.72
34081;BME280;20358;50.272;19.026;2022-08-18T05:07:22;97941.94;;;21.33;79.98
34081;BME280;20358;50.272;19.026;2022-08-18T05:10:30;97938.31;;;21.42;79.73
34081;BME280;20358;50.272;19.026;2022-08-18T05:13:36;97939.00;;;21.53;79.79
34081;BME280;20358;50.272;19.026;2022-08-18T05:16:43;97948.69;;;21.62;79.23
34081;BME280;20358;50.272;19.026;2022-08-18T05:19:54;97954.38;;;21.75;79.04
34081;BME280;20358;50.272;19.026;2022-08-18T05:23:02;97947.88;;;21.77;78.16
34081;BME280;20358;50.272;19.026;2022-08-18T05:26:08;97952.69;;;21.74;78.10
34081;BME280;20358;50.272;19.026;2022-08-18T05:29:16;97954.91;;;21.78;78.45
34081;BME280;20358;50.272;19.026;2022-08-18T05:32:23;97949.25;;;21.81;78.08
34081;BME280;20358;50.272;19.026;2022-08-18T05:36:02;97949.41;;;21.88;77.76
34081;BME280;20358;50.272;19.026;2022-08-18T05:39:14;97956.09;;;21.92;77.88
34081;BME280;20358;50.272;19.026;2022-08-18T05:42:25;97956.81;;;22.02;77.86
34081;BME280;20358;50.272;19.026;2022-08-18T05:45:33;97952.63;;;22.16;78.03
34081;BME280;20358;50.272;19.026;2022-08-18T05:48:40;97955.16;;;22.33;77.83
34081;BME280;20358;50.272;19.026;2022-08-18T05:51:52;97954.47;;;22.47;76.79
34081;BME280;20358;50.272;19.026;2022-08-18T05:55:03;97948.44;;;22.61;76.81
34081;BME280;20358;50.272;19.026;2022-08-18T05:58:30;97955.47;;;22.79;75.98
34081;BME280;20358;50.272;19.026;2022-08-18T06:01:40;97945.91;;;22.92;75.82
34081;BME280;20358;50.272;19.026;2022-08-18T06:04:52;97959.03;;;23.10;75.36
34081;BME280;20358;50.272;19.026;2022-08-18T06:08:08;97961.03;;;23.24;74.50
34081;BME280;20358;50.272;19.026;2022-08-18T06:11:15;97961.31;;;23.37;73.78
34081;BME280;20358;50.272;19.026;2022-08-18T06:14:25;97960.78;;;23.50;72.90
34081;BME280;20358;50.272;19.026;2022-08-18T06:17:54;97968.22;;;23.62;72.62
34081;BME280;20358;50.272;19.026;2022-08-18T06:21:13;97965.50;;;23.70;71.82
34081;BME280;20358;50.272;19.026;2022-08-18T06:24:29;97973.50;;;23.78;71.62
34081;BME280;20358;50.272;19.026;2022-08-18T06:27:45;97972.41;;;23.87;70.98
34081;BME280;20358;50.272;19.026;2022-08-18T06:31:01;97974.50;;;24.00;71.21
34081;BME280;20358;50.272;19.026;2022-08-18T06:34:17;97970.63;;;24.11;70.78
34081;BME280;20358;50.272;19.026;2022-08-18T06:37:30;97974.91;;;24.20;69.78
34081;BME280;20358;50.272;19.026;2022-08-18T06:41:10;97976.81;;;24.34;69.80
34081;BME280;20358;50.272;19.026;2022-08-18T06:44:40;97979.41;;;24.42;68.92
34081;BME280;20358;50.272;19.026;2022-08-18T06:47:51;97974.84;;;24.51;68.46
34081;BME280;20358;50.272;19.026;2022-08-18T06:51:06;97976.91;;;24.63;68.08
34081;BME280;20358;50.272;19.026;2022-08-18T06:54:26;97978.81;;;24.77;67.80
34081;BME280;20358;50.272;19.026;2022-08-18T06:57:38;97979.38;;;24.87;67.57
34081;BME280;20358;50.272;19.026;2022-08-18T07:00:54;97978.75;;;25.00;66.79
34081;BME280;20358;50.272;19.026;2022-08-18T07:04:03;97979.66;;;25.07;66.07
34081;BME280;20358;50.272;19.026;2022-08-18T07:07:15;97981.44;;;25.15;65.80
34081;BME280;20358;50.272;19.026;2022-08-18T07:10:32;97988.38;;;25.24;65.79
34081;BME280;20358;50.272;19.026;2022-08-18T07:13:43;97980.78;;;25.27;65.76
34081;BME280;20358;50.272;19.026;2022-08-18T07:17:12;97974.69;;;25.33;65.42
34081;BME280;20358;50.272;19.026;2022-08-18T07:20:21;97985.91;;;25.37;65.10
34081;BME280;20358;50.272;19.026;2022-08-18T07:23:31;97981.81;;;25.41;65.17
34081;BME280;20358;50.272;19.026;2022-08-18T07:27:05;97971.63;;;25.51;64.76
34081;BME280;20358;50.272;19.026;2022-08-18T07:30:28;97975.22;;;25.58;64.77
34081;BME280;20358;50.272;19.026;2022-08-18T07:33:35;97970.13;;;25.63;64.77
34081;BME280;20358;50.272;19.026;2022-08-18T07:36:47;97967.34;;;25.71;64.52
34081;BME280;20358;50.272;19.026;2022-08-18T07:39:59;97971.22;;;25.83;64.66
34081;BME280;20358;50.272;19.026;2022-08-18T07:43:14;97963.31;;;25.96;64.35
34081;BME280;20358;50.272;19.026;2022-08-18T07:46:34;97951.69;;;26.10;63.53
34081;BME280;20358;50.272;19.026;2022-08-18T07:49:41;97962.78;;;26.22;63.53
34081;BME280;20358;50.272;19.026;2022-08-18T07:53:13;97960.00;;;26.37;63.43
34081;BME280;20358;50.272;19.026;2022-08-18T07:56:32;97969.41;;;26.47;62.60
34081;BME280;20358;50.272;19.026;2022-08-18T07:59:49;97980.19;;;26.54;62.50
34081;BME280;20358;50.272;19.026;2022-08-18T08:03:10;97975.66;;;26.54;62.72
34081;BME280;20358;50.272;19.026;2022-08-18T08:06:30;97979.81;;;26.57;62.47
34081;BME280;20358;50.272;19.026;2022-08-18T08:09:45;97975.81;;;26.67;62.23
34081;BME280;20358;50.272;19.026;2022-08-18T08:13:05;97975.88;;;26.74;61.67
34081;BME280;20358;50.272;19.026;2022-08-18T08:16:37;97983.00;;;26.88;61.64
34081;BME280;20358;50.272;19.026;2022-08-18T08:20:08;97981.44;;;27.00;60.54
34081;BME280;20358;50.272;19.026;2022-08-18T08:23:24;97987.69;;;27.07;59.90
34081;BME280;20358;50.272;19.026;2022-08-18T08:26:45;97999.13;;;27.16;59.57
34081;BME280;20358;50.272;19.026;2022-08-18T08:30:02;98000.59;;;27.18;59.24
34081;BME280;20358;50.272;19.026;2022-08-18T08:33:14;97999.19;;;27.22;58.78
34081;BME280;20358;50.272;19.026;2022-08-18T08:36:28;98005.19;;;27.24;57.81
34081;BME280;20358;50.272;19.026;2022-08-18T08:39:40;97996.34;;;27.30;57.73
34081;BME280;20358;50.272;19.026;2022-08-18T08:42:54;98004.06;;;27.40;57.34
34081;BME280;20358;50.272;19.026;2022-08-18T08:46:09;98009.50;;;27.46;56.93
34081;BME280;20358;50.272;19.026;2022-08-18T08:49:34;98006.63;;;27.55;56.99
34081;BME280;20358;50.272;19.026;2022-08-18T08:52:50;97995.44;;;27.58;56.34
34081;BME280;20358;50.272;19.026;2022-08-18T08:56:02;98004.00;;;27.68;56.19
34081;BME280;20358;50.272;19.026;2022-08-18T08:59:14;98009.63;;;27.73;55.60
34081;BME280;20358;50.272;19.026;2022-08-18T09:02:47;98004.25;;;27.73;55.42
34081;BME280;20358;50.272;19.026;2022-08-18T09:06:18;98007.56;;;27.75;55.61
34081;BME280;20358;50.272;19.026;2022-08-18T09:09:50;98010.53;;;27.86;55.38
34081;BME280;20358;50.272;19.026;2022-08-18T09:13:22;98012.63;;;27.91;54.92
34081;BME280;20358;50.272;19.026;2022-08-18T09:16:41;98003.09;;;27.95;53.96
34081;BME280;20358;50.272;19.026;2022-08-18T09:20:07;98008.72;;;28.00;54.25
34081;BME280;20358;50.272;19.026;2022-08-18T09:23:18;98000.22;;;28.03;53.70
34081;BME280;20358;50.272;19.026;2022-08-18T09:26:40;98001.47;;;28.07;53.32
34081;BME280;20358;50.272;19.026;2022-08-18T09:29:51;98002.13;;;28.09;53.27
34081;BME280;20358;50.272;19.026;2022-08-18T09:33:13;97991.56;;;28.14;53.45
34081;BME280;20358;50.272;19.026;2022-08-18T09:36:33;97996.94;;;28.14;53.41
34081;BME280;20358;50.272;19.026;2022-08-18T09:39:52;97996.72;;;28.16;52.65
34081;BME280;20358;50.272;19.026;2022-08-18T09:43:31;97998.41;;;28.17;53.25
34081;BME280;20358;50.272;19.026;2022-08-18T09:46:57;98001.94;;;28.17;53.01
34081;BME280;20358;50.272;19.026;2022-08-18T09:54:06;98008.13;;;28.18;53.09
34081;BME280;20358;50.272;19.026;2022-08-18T09:57:19;98006.91;;;28.20;53.19
34081;BME280;20358;50.272;19.026;2022-08-18T10:00:30;98000.69;;;28.26;53.10
34081;BME280;20358;50.272;19.026;2022-08-18T10:03:36;97983.72;;;28.32;52.35
34081;BME280;20358;50.272;19.026;2022-08-18T10:06:45;97984.56;;;28.33;52.07
34081;BME280;20358;50.272;19.026;2022-08-18T10:10:19;97989.91;;;28.20;51.81
34081;BME280;20358;50.272;19.026;2022-08-18T10:13:58;97987.41;;;28.18;52.56
34081;BME280;20358;50.272;19.026;2022-08-18T10:17:25;97989.91;;;28.26;51.89
34081;BME280;20358;50.272;19.026;2022-08-18T10:20:55;97977.47;;;28.25;51.51
34081;BME280;20358;50.272;19.026;2022-08-18T10:24:14;97979.75;;;28.28;51.34
34081;BME280;20358;50.272;19.026;2022-08-18T10:27:49;97973.34;;;28.29;51.78
34081;BME280;20358;50.272;19.026;2022-08-18T10:31:04;97966.91;;;28.24;50.96
34081;BME280;20358;50.272;19.026;2022-08-18T10:34:36;97957.59;;;28.26;51.81
34081;BME280;20358;50.272;19.026;2022-08-18T10:37:54;97957.38;;;28.28;51.38
34081;BME280;20358;50.272;19.026;2022-08-18T10:41:08;97955.09;;;28.31;52.18
34081;BME280;20358;50.272;19.026;2022-08-18T10:44:20;97946.19;;;28.31;51.46
34081;BME280;20358;50.272;19.026;2022-08-18T10:47:33;97938.94;;;28.31;51.18
34081;BME280;20358;50.272;19.026;2022-08-18T10:50:50;97942.91;;;28.35;51.57
34081;BME280;20358;50.272;19.026;2022-08-18T10:54:01;97939.78;;;28.38;51.56
34081;BME280;20358;50.272;19.026;2022-08-18T10:57:14;97944.75;;;28.35;51.42
34081;BME280;20358;50.272;19.026;2022-08-18T11:00:28;97942.31;;;28.40;51.11
34081;BME280;20358;50.272;19.026;2022-08-18T11:04:04;97939.19;;;28.49;50.23
34081;BME280;20358;50.272;19.026;2022-08-18T11:07:35;97917.22;;;28.52;51.30
34081;BME280;20358;50.272;19.026;2022-08-18T11:10:48;97934.41;;;28.64;50.47
34081;BME280;20358;50.272;19.026;2022-08-18T11:14:32;97931.72;;;28.71;50.09
34081;BME280;20358;50.272;19.026;2022-08-18T11:17:55;97928.19;;;28.70;49.86
34081;BME280;20358;50.272;19.026;2022-08-18T11:21:31;97926.09;;;28.73;49.68
34081;BME280;20358;50.272;19.026;2022-08-18T11:24:47;97920.72;;;28.73;49.70
34081;BME280;20358;50.272;19.026;2022-08-18T11:27:55;97912.22;;;28.76;49.81
34081;BME280;20358;50.272;19.026;2022-08-18T11:31:03;97910.31;;;28.83;49.16
34081;BME280;20358;50.272;19.026;2022-08-18T11:34:12;97901.81;;;28.86;48.97
34081;BME280;20358;50.272;19.026;2022-08-18T11:37:24;97902.44;;;28.88;49.15
34081;BME280;20358;50.272;19.026;2022-08-18T11:41:10;97905.31;;;28.93;49.31
34081;BME280;20358;50.272;19.026;2022-08-18T11:44:38;97882.31;;;28.97;49.94
34081;BME280;20358;50.272;19.026;2022-08-18T11:48:08;97875.25;;;29.02;48.19
34081;BME280;20358;50.272;19.026;2022-08-18T11:51:21;97880.00;;;29.07;48.59
34081;BME280;20358;50.272;19.026;2022-08-18T11:54:37;97876.03;;;29.16;48.77
34081;BME280;20358;50.272;19.026;2022-08-18T11:58:01;97871.28;;;29.18;48.76
34081;BME280;20358;50.272;19.026;2022-08-18T12:01:29;97872.06;;;29.25;48.28
34081;BME280;20358;50.272;19.026;2022-08-18T12:04:49;97865.63;;;29.26;48.19
34081;BME280;20358;50.272;19.026;2022-08-18T12:08:18;97852.94;;;29.33;48.81
34081;BME280;20358;50.272;19.026;2022-08-18T12:11:51;97861.22;;;29.38;48.44
34081;BME280;20358;50.272;19.026;2022-08-18T12:15:25;97856.16;;;29.48;47.64
34081;BME280;20358;50.272;19.026;2022-08-18T12:18:48;97867.56;;;29.50;47.94
34081;BME280;20358;50.272;19.026;2022-08-18T12:21:57;97862.41;;;29.49;47.91
34081;BME280;20358;50.272;19.026;2022-08-18T12:25:15;97853.69;;;29.53;48.69
34081;BME280;20358;50.272;19.026;2022-08-18T12:28:28;97853.06;;;29.51;47.98
34081;BME280;20358;50.272;19.026;2022-08-18T12:31:37;97849.56;;;29.44;48.00
34081;BME280;20358;50.272;19.026;2022-08-18T12:34:50;97849.81;;;29.36;48.70
34081;BME280;20358;50.272;19.026;2022-08-18T12:37:56;97845.81;;;29.45;48.35
34081;BME280;20358;50.272;19.026;2022-08-18T12:41:16;97842.66;;;29.55;48.10
34081;BME280;20358;50.272;19.026;2022-08-18T12:44:25;97838.00;;;29.68;47.55
34081;BME280;20358;50.272;19.026;2022-08-18T12:47:37;97831.09;;;29.79;47.08
34081;BME280;20358;50.272;19.026;2022-08-18T12:50:44;97834.38;;;29.87;47.06
34081;BME280;20358;50.272;19.026;2022-08-18T12:53:58;97832.44;;;29.95;46.86
34081;BME280;20358;50.272;19.026;2022-08-18T12:57:17;97832.59;;;30.00;46.52
34081;BME280;20358;50.272;19.026;2022-08-18T13:00:45;97836.81;;;29.96;46.51
34081;BME280;20358;50.272;19.026;2022-08-18T13:03:55;97848.25;;;29.91;46.20
34081;BME280;20358;50.272;19.026;2022-08-18T13:07:16;97843.06;;;29.89;47.05
34081;BME280;20358;50.272;19.026;2022-08-18T13:10:23;97847.19;;;29.99;46.96
34081;BME280;20358;50.272;19.026;2022-08-18T13:13:49;97853.94;;;30.14;46.57
34081;BME280;20358;50.272;19.026;2022-08-18T13:16:58;97859.88;;;30.23;46.36
34081;BME280;20358;50.272;19.026;2022-08-18T13:20:15;97862.41;;;30.18;46.40
34081;BME280;20358;50.272;19.026;2022-08-18T13:23:22;97868.72;;;30.12;46.17
34081;BME280;20358;50.272;19.026;2022-08-18T13:26:31;97873.94;;;30.07;46.25
34081;BME280;20358;50.272;19.026;2022-08-18T13:29:38;97876.19;;;30.10;46.46
34081;BME280;20358;50.272;19.026;2022-08-18T13:32:47;97879.53;;;30.12;46.50
34081;BME280;20358;50.272;19.026;2022-08-18T13:36:10;97881.84;;;30.08;46.52
34081;BME280;20358;50.272;19.026;2022-08-18T13:39:19;97878.53;;;30.06;46.64
34081;BME280;20358;50.272;19.026;2022-08-18T13:42:26;97875.78;;;30.13;45.84
34081;BME280;20358;50.272;19.026;2022-08-18T13:45:53;97870.38;;;30.13;45.60
34081;BME280;20358;50.272;19.026;2022-08-18T13:49:00;97872.78;;;30.21;45.68
34081;BME280;20358;50.272;19.026;2022-08-18T13:52:12;97876.16;;;30.41;45.61
34081;BME280;20358;50.272;19.026;2022-08-18T13:55:36;97874.31;;;30.66;44.62
34081;BME280;20358;50.272;19.026;2022-08-18T13:58:43;97863.66;;;30.89;44.09
34081;BME280;20358;50.272;19.026;2022-08-18T14:01:55;97862.91;;;31.00;43.72
34081;BME280;20358;50.272;19.026;2022-08-18T14:05:04;97857.78;;;31.10;43.90
34081;BME280;20358;50.272;19.026;2022-08-18T14:08:15;97858.19;;;31.14;44.36
34081;BME280;20358;50.272;19.026;2022-08-18T14:11:26;97866.41;;;31.26;44.25
34081;BME280;20358;50.272;19.026;2022-08-18T14:14:34;97861.72;;;31.33;43.82
34081;BME280;20358;50.272;19.026;2022-08-18T14:17:41;97868.94;;;31.39;43.30
34081;BME280;20358;50.272;19.026;2022-08-18T14:20:49;97862.16;;;31.48;42.74
34081;BME280;20358;50.272;19.026;2022-08-18T14:24:18;97858.88;;;31.57;42.38
34081;BME280;20358;50.272;19.026;2022-08-18T14:27:40;97860.84;;;31.68;42.55
34081;BME280;20358;50.272;19.026;2022-08-18T14:31:00;97852.41;;;31.77;42.12
34081;BME280;20358;50.272;19.026;2022-08-18T14:34:09;97848.16;;;31.81;41.75
34081;BME280;20358;50.272;19.026;2022-08-18T14:37:24;97843.56;;;31.81;42.01
34081;BME280;20358;50.272;19.026;2022-08-18T14:40:33;97838.53;;;31.85;41.79
34081;BME280;20358;50.272;19.026;2022-08-18T14:43:45;97841.44;;;31.83;41.65
34081;BME280;20358;50.272;19.026;2022-08-18T14:47:14;97833.38;;;31.65;41.99
34081;BME280;20358;50.272;19.026;2022-08-18T14:50:27;97837.31;;;31.51;42.49
34081;BME280;20358;50.272;19.026;2022-08-18T14:53:33;97830.09;;;31.45;41.94
34081;BME280;20358;50.272;19.026;2022-08-18T14:56:43;97822.81;;;31.45;42.33
34081;BME280;20358;50.272;19.026;2022-08-18T14:59:52;97829.00;;;31.34;41.93
34081;BME280;20358;50.272;19.026;2022-08-18T15:02:59;97824.00;;;31.20;42.13
34081;BME280;20358;50.272;19.026;2022-08-18T15:06:07;97824.38;;;31.23;42.20
34081;BME280;20358;50.272;19.026;2022-08-18T15:09:25;97830.13;;;31.27;42.22
34081;BME280;20358;50.272;19.026;2022-08-18T15:12:35;97840.97;;;31.27;42.44
34081;BME280;20358;50.272;19.026;2022-08-18T15:15:42;97846.22;;;31.40;42.35
34081;BME280;20358;50.272;19.026;2022-08-18T15:18:53;97841.91;;;31.50;42.10
34081;BME280;20358;50.272;19.026;2022-08-18T15:22:00;97844.53;;;31.57;41.54
34081;BME280;20358;50.272;19.026;2022-08-18T15:25:22;97838.00;;;31.46;41.58
34081;BME280;20358;50.272;19.026;2022-08-18T15:28:47;97836.91;;;31.36;41.70
34081;BME280;20358;50.272;19.026;2022-08-18T15:31:54;97839.69;;;31.29;41.88
34081;BME280;20358;50.272;19.026;2022-08-18T15:35:08;97839.06;;;31.45;41.99
34081;BME280;20358;50.272;19.026;2022-08-18T15:38:20;97835.94;;;31.60;41.34
34081;BME280;20358;50.272;19.026;2022-08-18T15:41:31;97842.06;;;31.85;41.05
34081;BME280;20358;50.272;19.026;2022-08-18T15:44:49;97844.66;;;32.33;40.71
34081;BME280;20358;50.272;19.026;2022-08-18T15:47:56;97843.72;;;32.97;40.36
34081;BME280;20358;50.272;19.026;2022-08-18T15:51:03;97847.69;;;33.58;39.52
34081;BME280;20358;50.272;19.026;2022-08-18T15:54:14;97851.22;;;34.15;38.66
34081;BME280;20358;50.272;19.026;2022-08-18T15:57:22;97844.16;;;34.63;38.63
34081;BME280;20358;50.272;19.026;2022-08-18T16:00:46;97837.63;;;35.19;37.65
34081;BME280;20358;50.272;19.026;2022-08-18T16:03:55;97838.03;;;35.55;37.04
34081;BME280;20358;50.272;19.026;2022-08-18T16:07:04;97831.09;;;35.96;36.70
34081;BME280;20358;50.272;19.026;2022-08-18T16:10:11;97838.47;;;36.27;36.37
34081;BME280;20358;50.272;19.026;2022-08-18T16:13:18;97832.69;;;36.50;35.64
34081;BME280;20358;50.272;19.026;2022-08-18T16:16:28;97828.94;;;36.61;35.68
34081;BME280;20358;50.272;19.026;2022-08-18T16:19:38;97827.09;;;36.72;35.57
34081;BME280;20358;50.272;19.026;2022-08-18T16:22:46;97821.91;;;36.70;34.66
34081;BME280;20358;50.272;19.026;2022-08-18T16:25:59;97820.75;;;36.61;35.00
34081;BME280;20358;50.272;19.026;2022-08-18T16:29:06;97822.66;;;36.61;35.15
34081;BME280;20358;50.272;19.026;2022-08-18T16:32:15;97833.06;;;36.64;35.07
34081;BME280;20358;50.272;19.026;2022-08-18T16:35:22;97821.56;;;36.57;34.86
34081;BME280;20358;50.272;19.026;2022-08-18T16:38:29;97817.66;;;36.47;35.03
34081;BME280;20358;50.272;19.026;2022-08-18T16:41:36;97823.00;;;36.37;34.88
34081;BME280;20358;50.272;19.026;2022-08-18T16:44:43;97827.53;;;36.22;35.33
34081;BME280;20358;50.272;19.026;2022-08-18T16:47:52;97830.69;;;36.09;35.56
34081;BME280;20358;50.272;19.026;2022-08-18T16:50:59;97822.16;;;35.73;35.59
34081;BME280;20358;50.272;19.026;2022-08-18T16:54:08;97811.25;;;35.25;36.17
34081;BME280;20358;50.272;19.026;2022-08-18T16:57:15;97807.22;;;34.67;36.88